Terminal Aerodrome Forecast
Issued by NWS

Home | Current Version | Previous Version | Text Only | Print | Product List | Glossary On
Versions: 1 2 3 4 5 6 7 8 9 10 11 12
000
FTUS43 KOAX 211723
TAFSNY
TAF
KSNY 211723Z 2118/2218 22014KT P6SM SCT080 BKN100
     FM212000 26018G28KT P6SM VCSH BKN050 OVC100
     FM220100 31017G25KT P6SM VCSH BKN040 OVC060=

USA.gov is the U.S. government's official web portal to all federal, state and local government web resources and services.